sensor_id;sensor_type;location;lat;lon;timestamp;P1;durP1;ratioP1;P2;durP2;ratioP2
65996;SDS011;52765;52.258;21.052;2024-03-29T00:02:25;13.77;;;5.63;;
65996;SDS011;52765;52.258;21.052;2024-03-29T00:06:29;12.90;;;6.38;;
65996;SDS011;52765;52.258;21.052;2024-03-29T00:10:31;10.30;;;5.43;;
65996;SDS011;52765;52.258;21.052;2024-03-29T00:14:33;11.93;;;5.40;;
65996;SDS011;52765;52.258;21.052;2024-03-29T00:18:34;11.98;;;5.00;;
65996;SDS011;52765;52.258;21.052;2024-03-29T00:22:35;11.88;;;4.88;;
65996;SDS011;52765;52.258;21.052;2024-03-29T00:26:35;12.43;;;4.40;;
65996;SDS011;52765;52.258;21.052;2024-03-29T00:30:36;9.07;;;4.03;;
65996;SDS011;52765;52.258;21.052;2024-03-29T00:34:37;8.82;;;3.95;;
65996;SDS011;52765;52.258;21.052;2024-03-29T00:38:37;11.43;;;3.92;;
65996;SDS011;52765;52.258;21.052;2024-03-29T00:42:38;10.80;;;4.22;;
65996;SDS011;52765;52.258;21.052;2024-03-29T00:46:38;10.52;;;3.70;;
65996;SDS011;52765;52.258;21.052;2024-03-29T00:50:39;9.65;;;3.90;;
65996;SDS011;52765;52.258;21.052;2024-03-29T00:54:40;12.18;;;4.32;;
65996;SDS011;52765;52.258;21.052;2024-03-29T00:58:41;8.07;;;3.85;;
65996;SDS011;52765;52.258;21.052;2024-03-29T01:02:41;9.13;;;4.20;;
65996;SDS011;52765;52.258;21.052;2024-03-29T01:06:42;7.05;;;3.25;;
65996;SDS011;52765;52.258;21.052;2024-03-29T01:10:45;10.55;;;3.85;;
65996;SDS011;52765;52.258;21.052;2024-03-29T01:14:46;6.88;;;3.40;;
65996;SDS011;52765;52.258;21.052;2024-03-29T01:18:47;6.13;;;3.03;;
65996;SDS011;52765;52.258;21.052;2024-03-29T01:22:47;9.02;;;3.65;;
65996;SDS011;52765;52.258;21.052;2024-03-29T01:26:48;5.10;;;2.75;;
65996;SDS011;52765;52.258;21.052;2024-03-29T01:30:52;5.07;;;2.47;;
65996;SDS011;52765;52.258;21.052;2024-03-29T01:34:54;5.00;;;2.38;;
65996;SDS011;52765;52.258;21.052;2024-03-29T01:38:55;3.08;;;2.00;;
65996;SDS011;52765;52.258;21.052;2024-03-29T01:42:57;5.28;;;2.13;;
65996;SDS011;52765;52.258;21.052;2024-03-29T01:46:57;5.88;;;2.20;;
65996;SDS011;52765;52.258;21.052;2024-03-29T01:50:59;5.55;;;1.98;;
65996;SDS011;52765;52.258;21.052;2024-03-29T01:55:01;4.93;;;1.98;;
65996;SDS011;52765;52.258;21.052;2024-03-29T01:59:02;5.43;;;2.35;;
65996;SDS011;52765;52.258;21.052;2024-03-29T02:03:05;3.30;;;1.98;;
65996;SDS011;52765;52.258;21.052;2024-03-29T02:07:09;4.97;;;2.00;;
65996;SDS011;52765;52.258;21.052;2024-03-29T02:11:10;5.70;;;2.22;;
65996;SDS011;52765;52.258;21.052;2024-03-29T02:15:14;5.22;;;1.80;;
65996;SDS011;52765;52.258;21.052;2024-03-29T02:19:16;2.83;;;1.73;;
65996;SDS011;52765;52.258;21.052;2024-03-29T02:23:20;4.75;;;2.08;;
65996;SDS011;52765;52.258;21.052;2024-03-29T02:27:28;4.72;;;1.98;;
65996;SDS011;52765;52.258;21.052;2024-03-29T02:31:29;5.38;;;1.92;;
65996;SDS011;52765;52.258;21.052;2024-03-29T02:35:30;3.67;;;1.88;;
65996;SDS011;52765;52.258;21.052;2024-03-29T02:39:31;4.32;;;2.10;;
65996;SDS011;52765;52.258;21.052;2024-03-29T02:43:31;5.63;;;2.08;;
65996;SDS011;52765;52.258;21.052;2024-03-29T02:47:32;3.13;;;2.05;;
65996;SDS011;52765;52.258;21.052;2024-03-29T02:51:32;3.90;;;1.88;;
65996;SDS011;52765;52.258;21.052;2024-03-29T02:55:33;4.20;;;2.33;;
65996;SDS011;52765;52.258;21.052;2024-03-29T02:59:33;5.45;;;1.98;;
65996;SDS011;52765;52.258;21.052;2024-03-29T03:03:34;5.18;;;1.90;;
65996;SDS011;52765;52.258;21.052;2024-03-29T03:07:36;4.70;;;1.88;;
65996;SDS011;52765;52.258;21.052;2024-03-29T03:12:15;4.43;;;1.70;;
65996;SDS011;52765;52.258;21.052;2024-03-29T03:16:15;4.80;;;1.98;;
65996;SDS011;52765;52.258;21.052;2024-03-29T03:20:16;3.72;;;1.95;;
65996;SDS011;52765;52.258;21.052;2024-03-29T03:24:16;3.80;;;1.85;;
65996;SDS011;52765;52.258;21.052;2024-03-29T03:28:17;4.15;;;1.83;;
65996;SDS011;52765;52.258;21.052;2024-03-29T03:32:17;5.00;;;1.80;;
65996;SDS011;52765;52.258;21.052;2024-03-29T03:36:27;3.30;;;1.90;;
65996;SDS011;52765;52.258;21.052;2024-03-29T03:40:27;7.72;;;2.28;;
65996;SDS011;52765;52.258;21.052;2024-03-29T03:44:28;5.13;;;1.75;;
65996;SDS011;52765;52.258;21.052;2024-03-29T03:48:29;2.10;;;1.60;;
65996;SDS011;52765;52.258;21.052;2024-03-29T03:52:29;4.13;;;2.00;;
65996;SDS011;52765;52.258;21.052;2024-03-29T03:56:30;5.15;;;2.17;;
65996;SDS011;52765;52.258;21.052;2024-03-29T04:00:30;2.83;;;2.00;;
65996;SDS011;52765;52.258;21.052;2024-03-29T04:04:31;3.33;;;1.73;;
65996;SDS011;52765;52.258;21.052;2024-03-29T04:08:32;18.50;;;2.30;;
65996;SDS011;52765;52.258;21.052;2024-03-29T04:12:33;3.53;;;2.00;;
65996;SDS011;52765;52.258;21.052;2024-03-29T04:16:33;3.58;;;2.00;;
65996;SDS011;52765;52.258;21.052;2024-03-29T04:20:34;6.22;;;1.90;;
65996;SDS011;52765;52.258;21.052;2024-03-29T04:24:34;5.20;;;2.10;;
65996;SDS011;52765;52.258;21.052;2024-03-29T04:28:35;5.30;;;1.77;;
65996;SDS011;52765;52.258;21.052;2024-03-29T04:32:36;4.68;;;1.90;;
65996;SDS011;52765;52.258;21.052;2024-03-29T04:36:37;4.80;;;1.77;;
65996;SDS011;52765;52.258;21.052;2024-03-29T04:40:38;4.57;;;1.77;;
65996;SDS011;52765;52.258;21.052;2024-03-29T04:44:39;5.80;;;3.00;;
65996;SDS011;52765;52.258;21.052;2024-03-29T04:48:40;3.97;;;1.63;;
65996;SDS011;52765;52.258;21.052;2024-03-29T04:52:42;2.13;;;1.83;;
65996;SDS011;52765;52.258;21.052;2024-03-29T04:56:42;3.05;;;1.70;;
65996;SDS011;52765;52.258;21.052;2024-03-29T05:00:43;10.00;;;4.05;;
65996;SDS011;52765;52.258;21.052;2024-03-29T05:04:43;2.92;;;1.70;;
65996;SDS011;52765;52.258;21.052;2024-03-29T05:08:44;2.72;;;1.65;;
65996;SDS011;52765;52.258;21.052;2024-03-29T05:12:45;3.28;;;2.10;;
65996;SDS011;52765;52.258;21.052;2024-03-29T05:16:48;3.03;;;2.10;;
65996;SDS011;52765;52.258;21.052;2024-03-29T05:20:49;3.20;;;2.10;;
65996;SDS011;52765;52.258;21.052;2024-03-29T05:24:56;5.65;;;2.25;;
65996;SDS011;52765;52.258;21.052;2024-03-29T05:28:57;2.97;;;1.92;;
65996;SDS011;52765;52.258;21.052;2024-03-29T05:32:58;3.28;;;1.90;;
65996;SDS011;52765;52.258;21.052;2024-03-29T05:36:58;5.22;;;2.30;;
65996;SDS011;52765;52.258;21.052;2024-03-29T05:40:59;3.05;;;1.80;;
65996;SDS011;52765;52.258;21.052;2024-03-29T05:45:00;2.78;;;1.98;;
65996;SDS011;52765;52.258;21.052;2024-03-29T05:49:00;6.82;;;1.98;;
65996;SDS011;52765;52.258;21.052;2024-03-29T05:53:01;6.35;;;2.42;;
65996;SDS011;52765;52.258;21.052;2024-03-29T05:57:01;4.65;;;1.80;;
65996;SDS011;52765;52.258;21.052;2024-03-29T06:01:03;3.80;;;2.10;;
65996;SDS011;52765;52.258;21.052;2024-03-29T06:05:04;4.32;;;1.67;;
65996;SDS011;52765;52.258;21.052;2024-03-29T06:09:05;3.00;;;1.70;;
65996;SDS011;52765;52.258;21.052;2024-03-29T06:13:06;3.97;;;1.90;;
65996;SDS011;52765;52.258;21.052;2024-03-29T06:17:27;3.47;;;1.88;;
65996;SDS011;52765;52.258;21.052;2024-03-29T06:21:28;4.05;;;2.13;;
65996;SDS011;52765;52.258;21.052;2024-03-29T06:25:40;4.82;;;1.92;;
65996;SDS011;52765;52.258;21.052;2024-03-29T06:29:41;3.17;;;2.00;;
65996;SDS011;52765;52.258;21.052;2024-03-29T06:33:42;5.00;;;2.13;;
65996;SDS011;52765;52.258;21.052;2024-03-29T06:37:43;3.78;;;2.22;;
65996;SDS011;52765;52.258;21.052;2024-03-29T06:41:43;3.00;;;1.83;;
65996;SDS011;52765;52.258;21.052;2024-03-29T06:45:44;6.20;;;2.13;;
65996;SDS011;52765;52.258;21.052;2024-03-29T06:49:44;5.10;;;2.25;;
65996;SDS011;52765;52.258;21.052;2024-03-29T06:53:45;8.00;;;2.45;;
65996;SDS011;52765;52.258;21.052;2024-03-29T06:57:46;3.45;;;1.90;;
65996;SDS011;52765;52.258;21.052;2024-03-29T07:01:47;4.72;;;2.10;;
65996;SDS011;52765;52.258;21.052;2024-03-29T07:05:51;2.53;;;1.65;;
65996;SDS011;52765;52.258;21.052;2024-03-29T07:09:52;2.78;;;1.63;;
65996;SDS011;52765;52.258;21.052;2024-03-29T07:13:52;5.50;;;2.30;;
65996;SDS011;52765;52.258;21.052;2024-03-29T07:17:53;2.60;;;1.98;;
65996;SDS011;52765;52.258;21.052;2024-03-29T07:21:53;3.38;;;1.70;;
65996;SDS011;52765;52.258;21.052;2024-03-29T07:26:00;6.53;;;1.67;;
65996;SDS011;52765;52.258;21.052;2024-03-29T07:30:03;3.83;;;2.00;;
65996;SDS011;52765;52.258;21.052;2024-03-29T07:34:04;3.70;;;1.40;;
65996;SDS011;52765;52.258;21.052;2024-03-29T07:38:04;2.72;;;1.50;;
65996;SDS011;52765;52.258;21.052;2024-03-29T07:42:05;8.50;;;1.92;;
65996;SDS011;52765;52.258;21.052;2024-03-29T07:46:06;7.72;;;1.40;;
65996;SDS011;52765;52.258;21.052;2024-03-29T07:50:10;7.90;;;1.88;;
65996;SDS011;52765;52.258;21.052;2024-03-29T07:54:11;5.30;;;1.67;;
65996;SDS011;52765;52.258;21.052;2024-03-29T07:58:12;4.97;;;1.45;;
65996;SDS011;52765;52.258;21.052;2024-03-29T08:02:12;5.30;;;1.88;;
65996;SDS011;52765;52.258;21.052;2024-03-29T08:06:13;5.35;;;2.13;;
65996;SDS011;52765;52.258;21.052;2024-03-29T08:10:17;3.65;;;1.30;;
65996;SDS011;52765;52.258;21.052;2024-03-29T08:14:21;5.85;;;1.67;;
65996;SDS011;52765;52.258;21.052;2024-03-29T08:18:31;5.30;;;1.10;;
65996;SDS011;52765;52.258;21.052;2024-03-29T08:22:31;11.32;;;1.42;;
65996;SDS011;52765;52.258;21.052;2024-03-29T08:26:35;2.40;;;1.02;;
65996;SDS011;52765;52.258;21.052;2024-03-29T08:30:36;3.25;;;1.05;;
65996;SDS011;52765;52.258;21.052;2024-03-29T08:34:36;2.03;;;0.80;;
65996;SDS011;52765;52.258;21.052;2024-03-29T08:38:40;1.83;;;1.00;;
65996;SDS011;52765;52.258;21.052;2024-03-29T08:42:45;6.20;;;1.00;;
65996;SDS011;52765;52.258;21.052;2024-03-29T08:50:51;6.75;;;1.60;;
65996;SDS011;52765;52.258;21.052;2024-03-29T08:54:52;1.92;;;0.57;;
65996;SDS011;52765;52.258;21.052;2024-03-29T08:58:52;8.02;;;1.38;;
65996;SDS011;52765;52.258;21.052;2024-03-29T09:02:53;4.55;;;1.27;;
65996;SDS011;52765;52.258;21.052;2024-03-29T09:06:56;6.53;;;1.17;;
65996;SDS011;52765;52.258;21.052;2024-03-29T09:10:57;4.78;;;1.25;;
65996;SDS011;52765;52.258;21.052;2024-03-29T09:14:58;3.03;;;1.48;;
65996;SDS011;52765;52.258;21.052;2024-03-29T09:18:59;1.90;;;1.17;;
65996;SDS011;52765;52.258;21.052;2024-03-29T09:23:11;13.90;;;1.95;;
65996;SDS011;52765;52.258;21.052;2024-03-29T09:27:15;5.93;;;1.60;;
65996;SDS011;52765;52.258;21.052;2024-03-29T09:31:17;2.13;;;1.20;;
65996;SDS011;52765;52.258;21.052;2024-03-29T09:35:17;3.60;;;1.25;;
65996;SDS011;52765;52.258;21.052;2024-03-29T09:39:19;4.82;;;1.25;;
65996;SDS011;52765;52.258;21.052;2024-03-29T09:43:20;5.13;;;1.63;;
65996;SDS011;52765;52.258;21.052;2024-03-29T09:47:22;6.43;;;1.70;;
65996;SDS011;52765;52.258;21.052;2024-03-29T09:51:25;7.18;;;2.35;;
65996;SDS011;52765;52.258;21.052;2024-03-29T09:55:28;5.43;;;1.60;;
65996;SDS011;52765;52.258;21.052;2024-03-29T09:59:29;6.10;;;1.38;;
65996;SDS011;52765;52.258;21.052;2024-03-29T10:03:30;3.72;;;1.23;;
65996;SDS011;52765;52.258;21.052;2024-03-29T10:07:35;4.53;;;1.35;;
65996;SDS011;52765;52.258;21.052;2024-03-29T10:11:37;4.82;;;1.30;;
65996;SDS011;52765;52.258;21.052;2024-03-29T10:15:38;4.00;;;1.52;;
65996;SDS011;52765;52.258;21.052;2024-03-29T10:19:44;4.93;;;1.67;;
65996;SDS011;52765;52.258;21.052;2024-03-29T10:23:46;3.45;;;1.80;;
65996;SDS011;52765;52.258;21.052;2024-03-29T10:27:48;9.00;;;1.80;;
65996;SDS011;52765;52.258;21.052;2024-03-29T10:31:49;2.95;;;1.73;;
65996;SDS011;52765;52.258;21.052;2024-03-29T10:35:52;3.65;;;1.17;;
65996;SDS011;52765;52.258;21.052;2024-03-29T10:39:52;5.82;;;1.48;;
65996;SDS011;52765;52.258;21.052;2024-03-29T10:43:53;3.55;;;1.23;;
65996;SDS011;52765;52.258;21.052;2024-03-29T10:47:56;6.55;;;1.25;;
65996;SDS011;52765;52.258;21.052;2024-03-29T10:52:00;3.35;;;0.90;;
65996;SDS011;52765;52.258;21.052;2024-03-29T10:56:02;2.83;;;0.93;;
65996;SDS011;52765;52.258;21.052;2024-03-29T11:00:10;3.30;;;1.05;;
65996;SDS011;52765;52.258;21.052;2024-03-29T11:04:26;1.73;;;1.00;;
65996;SDS011;52765;52.258;21.052;2024-03-29T11:08:31;4.78;;;1.00;;
65996;SDS011;52765;52.258;21.052;2024-03-29T11:12:55;2.35;;;0.90;;
65996;SDS011;52765;52.258;21.052;2024-03-29T11:17:14;3.35;;;0.95;;
65996;SDS011;52765;52.258;21.052;2024-03-29T11:21:35;3.30;;;0.88;;
65996;SDS011;52765;52.258;21.052;2024-03-29T11:25:39;3.55;;;1.05;;
65996;SDS011;52765;52.258;21.052;2024-03-29T11:29:44;4.95;;;0.68;;
65996;SDS011;52765;52.258;21.052;2024-03-29T11:33:46;1.38;;;0.70;;
65996;SDS011;52765;52.258;21.052;2024-03-29T11:37:55;3.63;;;1.10;;
65996;SDS011;52765;52.258;21.052;2024-03-29T11:42:00;2.30;;;0.95;;
65996;SDS011;52765;52.258;21.052;2024-03-29T11:46:02;3.80;;;0.95;;
65996;SDS011;52765;52.258;21.052;2024-03-29T11:50:06;2.20;;;0.80;;
65996;SDS011;52765;52.258;21.052;2024-03-29T11:54:08;5.22;;;0.90;;
65996;SDS011;52765;52.258;21.052;2024-03-29T11:58:08;3.15;;;1.23;;
65996;SDS011;52765;52.258;21.052;2024-03-29T12:02:09;1.83;;;0.77;;
65996;SDS011;52765;52.258;21.052;2024-03-29T12:06:14;3.20;;;0.80;;
65996;SDS011;52765;52.258;21.052;2024-03-29T12:10:17;6.40;;;1.10;;
65996;SDS011;52765;52.258;21.052;2024-03-29T12:14:17;5.90;;;1.13;;
65996;SDS011;52765;52.258;21.052;2024-03-29T12:18:22;3.50;;;0.70;;
65996;SDS011;52765;52.258;21.052;2024-03-29T12:22:24;4.95;;;1.05;;
65996;SDS011;52765;52.258;21.052;2024-03-29T12:26:25;6.57;;;1.05;;
65996;SDS011;52765;52.258;21.052;2024-03-29T12:30:30;3.05;;;0.90;;
65996;SDS011;52765;52.258;21.052;2024-03-29T12:34:31;7.95;;;1.10;;
65996;SDS011;52765;52.258;21.052;2024-03-29T12:38:31;5.05;;;1.13;;
65996;SDS011;52765;52.258;21.052;2024-03-29T12:42:33;4.13;;;0.93;;
65996;SDS011;52765;52.258;21.052;2024-03-29T12:46:34;2.35;;;0.70;;
65996;SDS011;52765;52.258;21.052;2024-03-29T12:50:34;3.58;;;0.80;;
65996;SDS011;52765;52.258;21.052;2024-03-29T12:54:35;4.05;;;1.13;;
65996;SDS011;52765;52.258;21.052;2024-03-29T12:58:35;4.10;;;1.23;;
65996;SDS011;52765;52.258;21.052;2024-03-29T13:02:37;5.25;;;0.75;;
65996;SDS011;52765;52.258;21.052;2024-03-29T13:06:38;2.05;;;1.00;;
65996;SDS011;52765;52.258;21.052;2024-03-29T13:10:38;1.33;;;0.68;;
65996;SDS011;52765;52.258;21.052;2024-03-29T13:14:40;2.40;;;0.90;;
65996;SDS011;52765;52.258;21.052;2024-03-29T13:18:40;1.85;;;0.90;;
65996;SDS011;52765;52.258;21.052;2024-03-29T13:22:47;3.03;;;1.15;;
65996;SDS011;52765;52.258;21.052;2024-03-29T13:26:49;4.78;;;1.05;;
65996;SDS011;52765;52.258;21.052;2024-03-29T13:30:49;1.50;;;0.90;;
65996;SDS011;52765;52.258;21.052;2024-03-29T13:34:51;2.55;;;0.95;;
65996;SDS011;52765;52.258;21.052;2024-03-29T13:38:52;1.63;;;0.73;;
65996;SDS011;52765;52.258;21.052;2024-03-29T13:42:52;2.10;;;0.90;;
65996;SDS011;52765;52.258;21.052;2024-03-29T13:46:53;1.33;;;0.75;;
65996;SDS011;52765;52.258;21.052;2024-03-29T13:50:53;1.30;;;0.60;;
65996;SDS011;52765;52.258;21.052;2024-03-29T13:54:54;2.20;;;1.00;;
65996;SDS011;52765;52.258;21.052;2024-03-29T13:58:54;3.38;;;0.73;;
65996;SDS011;52765;52.258;21.052;2024-03-29T14:02:55;4.13;;;0.70;;
65996;SDS011;52765;52.258;21.052;2024-03-29T14:06:56;1.88;;;0.68;;
65996;SDS011;52765;52.258;21.052;2024-03-29T14:10:57;1.67;;;0.80;;
65996;SDS011;52765;52.258;21.052;2024-03-29T14:14:58;1.88;;;0.63;;
65996;SDS011;52765;52.258;21.052;2024-03-29T14:19:00;2.70;;;0.93;;
65996;SDS011;52765;52.258;21.052;2024-03-29T14:23:01;1.50;;;0.60;;
65996;SDS011;52765;52.258;21.052;2024-03-29T14:27:06;2.38;;;0.70;;
65996;SDS011;52765;52.258;21.052;2024-03-29T14:31:06;3.33;;;0.70;;
65996;SDS011;52765;52.258;21.052;2024-03-29T14:35:11;3.13;;;0.80;;
65996;SDS011;52765;52.258;21.052;2024-03-29T14:39:23;3.97;;;1.00;;
65996;SDS011;52765;52.258;21.052;2024-03-29T14:43:36;1.80;;;0.70;;
65996;SDS011;52765;52.258;21.052;2024-03-29T14:47:51;3.03;;;0.80;;
65996;SDS011;52765;52.258;21.052;2024-03-29T14:51:57;3.15;;;0.80;;
65996;SDS011;52765;52.258;21.052;2024-03-29T14:56:01;3.58;;;0.70;;
65996;SDS011;52765;52.258;21.052;2024-03-29T15:00:02;2.78;;;0.80;;
65996;SDS011;52765;52.258;21.052;2024-03-29T15:04:04;2.22;;;0.90;;
65996;SDS011;52765;52.258;21.052;2024-03-29T15:08:05;2.50;;;0.80;;
65996;SDS011;52765;52.258;21.052;2024-03-29T15:12:06;2.33;;;0.90;;
65996;SDS011;52765;52.258;21.052;2024-03-29T15:16:08;5.07;;;1.10;;
65996;SDS011;52765;52.258;21.052;2024-03-29T15:20:09;4.65;;;0.98;;
65996;SDS011;52765;52.258;21.052;2024-03-29T15:24:11;7.13;;;1.30;;
65996;SDS011;52765;52.258;21.052;2024-03-29T15:28:12;1.42;;;0.50;;
65996;SDS011;52765;52.258;21.052;2024-03-29T15:32:12;2.63;;;0.93;;
65996;SDS011;52765;52.258;21.052;2024-03-29T15:36:13;1.83;;;0.80;;
65996;SDS011;52765;52.258;21.052;2024-03-29T15:40:14;3.22;;;0.93;;
65996;SDS011;52765;52.258;21.052;2024-03-29T15:44:14;2.20;;;0.70;;
65996;SDS011;52765;52.258;21.052;2024-03-29T15:48:16;2.13;;;0.85;;
65996;SDS011;52765;52.258;21.052;2024-03-29T15:52:16;2.13;;;0.88;;
65996;SDS011;52765;52.258;21.052;2024-03-29T15:56:17;6.70;;;1.05;;
65996;SDS011;52765;52.258;21.052;2024-03-29T16:00:21;4.47;;;0.93;;
65996;SDS011;52765;52.258;21.052;2024-03-29T16:04:27;2.70;;;1.30;;
65996;SDS011;52765;52.258;21.052;2024-03-29T16:08:29;4.72;;;0.80;;
65996;SDS011;52765;52.258;21.052;2024-03-29T16:12:30;4.47;;;1.00;;
65996;SDS011;52765;52.258;21.052;2024-03-29T16:16:31;2.90;;;1.10;;
65996;SDS011;52765;52.258;21.052;2024-03-29T16:20:32;3.70;;;1.30;;
65996;SDS011;52765;52.258;21.052;2024-03-29T16:24:34;6.20;;;1.60;;
65996;SDS011;52765;52.258;21.052;2024-03-29T16:28:35;6.38;;;1.40;;
65996;SDS011;52765;52.258;21.052;2024-03-29T16:32:35;8.75;;;1.40;;
65996;SDS011;52765;52.258;21.052;2024-03-29T16:36:36;8.25;;;1.50;;
65996;SDS011;52765;52.258;21.052;2024-03-29T16:40:36;5.70;;;2.33;;
65996;SDS011;52765;52.258;21.052;2024-03-29T16:44:38;7.40;;;3.05;;
65996;SDS011;52765;52.258;21.052;2024-03-29T16:48:39;9.98;;;2.13;;
65996;SDS011;52765;52.258;21.052;2024-03-29T16:52:39;9.60;;;1.52;;
65996;SDS011;52765;52.258;21.052;2024-03-29T16:56:40;6.75;;;1.23;;
65996;SDS011;52765;52.258;21.052;2024-03-29T17:00:40;2.80;;;1.52;;
65996;SDS011;52765;52.258;21.052;2024-03-29T17:04:41;6.18;;;1.58;;
65996;SDS011;52765;52.258;21.052;2024-03-29T17:08:45;11.30;;;2.05;;
65996;SDS011;52765;52.258;21.052;2024-03-29T17:12:46;9.88;;;1.60;;
65996;SDS011;52765;52.258;21.052;2024-03-29T17:16:46;22.48;;;9.05;;
65996;SDS011;52765;52.258;21.052;2024-03-29T17:20:48;25.05;;;10.40;;
65996;SDS011;52765;52.258;21.052;2024-03-29T17:24:49;9.32;;;3.08;;
65996;SDS011;52765;52.258;21.052;2024-03-29T17:28:50;7.90;;;2.72;;
65996;SDS011;52765;52.258;21.052;2024-03-29T17:32:50;14.30;;;4.97;;
65996;SDS011;52765;52.258;21.052;2024-03-29T17:36:54;8.38;;;3.33;;
65996;SDS011;52765;52.258;21.052;2024-03-29T17:40:54;22.88;;;11.95;;
65996;SDS011;52765;52.258;21.052;2024-03-29T17:44:55;13.60;;;3.55;;
65996;SDS011;52765;52.258;21.052;2024-03-29T17:48:55;6.93;;;3.05;;
65996;SDS011;52765;52.258;21.052;2024-03-29T17:52:56;6.68;;;1.73;;
65996;SDS011;52765;52.258;21.052;2024-03-29T17:56:56;7.28;;;2.70;;
65996;SDS011;52765;52.258;21.052;2024-03-29T18:00:57;4.85;;;2.25;;
65996;SDS011;52765;52.258;21.052;2024-03-29T18:04:58;13.20;;;3.00;;
65996;SDS011;52765;52.258;21.052;2024-03-29T18:08:58;11.85;;;2.65;;
65996;SDS011;52765;52.258;21.052;2024-03-29T18:12:59;7.38;;;2.42;;
65996;SDS011;52765;52.258;21.052;2024-03-29T18:16:59;4.88;;;1.88;;
65996;SDS011;52765;52.258;21.052;2024-03-29T18:21:01;8.30;;;2.78;;
65996;SDS011;52765;52.258;21.052;2024-03-29T18:25:01;10.18;;;2.72;;
65996;SDS011;52765;52.258;21.052;2024-03-29T18:29:02;13.07;;;3.20;;
65996;SDS011;52765;52.258;21.052;2024-03-29T18:33:03;18.58;;;4.60;;
65996;SDS011;52765;52.258;21.052;2024-03-29T18:37:04;9.13;;;3.35;;
65996;SDS011;52765;52.258;21.052;2024-03-29T18:41:04;9.77;;;3.38;;
65996;SDS011;52765;52.258;21.052;2024-03-29T18:45:06;11.23;;;3.40;;
65996;SDS011;52765;52.258;21.052;2024-03-29T18:49:08;7.70;;;2.85;;
65996;SDS011;52765;52.258;21.052;2024-03-29T18:53:08;11.93;;;3.33;;
65996;SDS011;52765;52.258;21.052;2024-03-29T18:57:09;13.38;;;3.60;;
65996;SDS011;52765;52.258;21.052;2024-03-29T19:01:10;8.73;;;3.33;;
65996;SDS011;52765;52.258;21.052;2024-03-29T19:05:12;9.82;;;3.75;;
65996;SDS011;52765;52.258;21.052;2024-03-29T19:09:13;16.73;;;5.15;;
65996;SDS011;52765;52.258;21.052;2024-03-29T19:13:13;12.52;;;4.30;;
65996;SDS011;52765;52.258;21.052;2024-03-29T19:17:14;22.95;;;5.40;;
65996;SDS011;52765;52.258;21.052;2024-03-29T19:21:15;9.00;;;4.93;;
65996;SDS011;52765;52.258;21.052;2024-03-29T19:25:15;15.00;;;5.30;;
65996;SDS011;52765;52.258;21.052;2024-03-29T19:29:16;19.20;;;5.97;;
65996;SDS011;52765;52.258;21.052;2024-03-29T19:33:16;21.27;;;6.60;;
65996;SDS011;52765;52.258;21.052;2024-03-29T19:37:17;14.52;;;5.70;;
65996;SDS011;52765;52.258;21.052;2024-03-29T19:41:18;13.27;;;6.40;;
65996;SDS011;52765;52.258;21.052;2024-03-29T19:45:18;18.05;;;6.78;;
65996;SDS011;52765;52.258;21.052;2024-03-29T19:49:19;20.08;;;6.30;;
65996;SDS011;52765;52.258;21.052;2024-03-29T19:53:21;27.38;;;6.45;;
65996;SDS011;52765;52.258;21.052;2024-03-29T19:57:22;17.65;;;6.38;;
65996;SDS011;52765;52.258;21.052;2024-03-29T20:01:23;20.40;;;6.65;;
65996;SDS011;52765;52.258;21.052;2024-03-29T20:05:23;17.45;;;6.47;;
65996;SDS011;52765;52.258;21.052;2024-03-29T20:09:26;13.02;;;5.82;;
65996;SDS011;52765;52.258;21.052;2024-03-29T20:13:28;14.70;;;6.10;;
65996;SDS011;52765;52.258;21.052;2024-03-29T20:17:28;16.98;;;6.38;;
65996;SDS011;52765;52.258;21.052;2024-03-29T20:21:29;17.23;;;6.85;;
65996;SDS011;52765;52.258;21.052;2024-03-29T20:25:30;21.00;;;6.07;;
65996;SDS011;52765;52.258;21.052;2024-03-29T20:29:34;12.73;;;6.18;;
65996;SDS011;52765;52.258;21.052;2024-03-29T20:33:35;17.90;;;5.93;;
65996;SDS011;52765;52.258;21.052;2024-03-29T20:37:35;23.13;;;6.72;;
65996;SDS011;52765;52.258;21.052;2024-03-29T20:41:36;19.92;;;6.43;;
65996;SDS011;52765;52.258;21.052;2024-03-29T20:45:39;14.00;;;6.38;;
65996;SDS011;52765;52.258;21.052;2024-03-29T20:49:40;19.35;;;6.25;;
65996;SDS011;52765;52.258;21.052;2024-03-29T20:53:41;15.48;;;6.53;;
65996;SDS011;52765;52.258;21.052;2024-03-29T20:57:41;20.10;;;7.25;;
65996;SDS011;52765;52.258;21.052;2024-03-29T21:01:42;17.65;;;6.25;;
65996;SDS011;52765;52.258;21.052;2024-03-29T21:06:01;17.30;;;6.45;;
65996;SDS011;52765;52.258;21.052;2024-03-29T21:10:04;17.27;;;6.50;;
65996;SDS011;52765;52.258;21.052;2024-03-29T21:14:05;18.02;;;6.78;;
65996;SDS011;52765;52.258;21.052;2024-03-29T21:18:06;14.35;;;6.60;;
65996;SDS011;52765;52.258;21.052;2024-03-29T21:22:07;19.05;;;7.57;;
65996;SDS011;52765;52.258;21.052;2024-03-29T21:26:07;16.00;;;6.90;;
65996;SDS011;52765;52.258;21.052;2024-03-29T21:30:09;19.70;;;6.65;;
65996;SDS011;52765;52.258;21.052;2024-03-29T21:34:15;22.73;;;7.35;;
65996;SDS011;52765;52.258;21.052;2024-03-29T21:38:15;15.93;;;6.20;;
65996;SDS011;52765;52.258;21.052;2024-03-29T21:42:21;13.30;;;6.20;;
65996;SDS011;52765;52.258;21.052;2024-03-29T21:46:22;16.08;;;6.30;;
65996;SDS011;52765;52.258;21.052;2024-03-29T21:50:25;13.63;;;5.65;;
65996;SDS011;52765;52.258;21.052;2024-03-29T21:54:27;20.67;;;10.13;;
65996;SDS011;52765;52.258;21.052;2024-03-29T21:58:28;18.52;;;6.30;;
65996;SDS011;52765;52.258;21.052;2024-03-29T22:02:32;15.75;;;6.32;;
65996;SDS011;52765;52.258;21.052;2024-03-29T22:06:32;20.98;;;6.70;;
65996;SDS011;52765;52.258;21.052;2024-03-29T22:10:34;22.75;;;7.07;;
65996;SDS011;52765;52.258;21.052;2024-03-29T22:14:35;19.73;;;6.40;;
65996;SDS011;52765;52.258;21.052;2024-03-29T22:18:36;19.95;;;6.00;;
65996;SDS011;52765;52.258;21.052;2024-03-29T22:22:36;20.02;;;6.47;;
65996;SDS011;52765;52.258;21.052;2024-03-29T22:26:37;13.40;;;6.10;;
65996;SDS011;52765;52.258;21.052;2024-03-29T22:30:42;15.07;;;6.00;;
65996;SDS011;52765;52.258;21.052;2024-03-29T22:34:46;14.35;;;5.47;;
65996;SDS011;52765;52.258;21.052;2024-03-29T22:38:55;17.20;;;6.85;;
65996;SDS011;52765;52.258;21.052;2024-03-29T22:47:03;11.70;;;6.30;;
65996;SDS011;52765;52.258;21.052;2024-03-29T22:51:04;16.40;;;6.18;;
65996;SDS011;52765;52.258;21.052;2024-03-29T22:55:05;13.23;;;6.65;;
65996;SDS011;52765;52.258;21.052;2024-03-29T22:59:06;18.42;;;7.60;;
65996;SDS011;52765;52.258;21.052;2024-03-29T23:03:07;16.05;;;6.47;;
65996;SDS011;52765;52.258;21.052;2024-03-29T23:07:07;17.90;;;6.45;;
65996;SDS011;52765;52.258;21.052;2024-03-29T23:11:10;17.52;;;6.25;;
65996;SDS011;52765;52.258;21.052;2024-03-29T23:15:11;16.90;;;5.55;;
65996;SDS011;52765;52.258;21.052;2024-03-29T23:19:12;15.57;;;5.88;;
65996;SDS011;52765;52.258;21.052;2024-03-29T23:23:16;15.82;;;6.10;;
65996;SDS011;52765;52.258;21.052;2024-03-29T23:27:17;16.63;;;6.63;;
65996;SDS011;52765;52.258;21.052;2024-03-29T23:31:19;21.40;;;6.07;;
65996;SDS011;52765;52.258;21.052;2024-03-29T23:35:26;16.70;;;5.63;;
65996;SDS011;52765;52.258;21.052;2024-03-29T23:39:28;14.20;;;6.07;;
65996;SDS011;52765;52.258;21.052;2024-03-29T23:43:29;15.25;;;6.25;;
65996;SDS011;52765;52.258;21.052;2024-03-29T23:47:29;15.90;;;5.78;;
65996;SDS011;52765;52.258;21.052;2024-03-29T23:51:30;14.48;;;5.72;;
65996;SDS011;52765;52.258;21.052;2024-03-29T23:55:31;12.93;;;5.13;;
65996;SDS011;52765;52.258;21.052;2024-03-29T23:59:31;12.23;;;6.25;;
